createdAt,value
2022-11-10T00:00:33.601Z,28.20
2022-11-10T00:03:03.555Z,26.90
2022-11-10T00:05:34.655Z,30.87
2022-11-10T00:08:05.024Z,28.70
2022-11-10T00:10:54.742Z,30.20
2022-11-10T00:13:23.675Z,28.80
2022-11-10T00:16:10.028Z,30.77
2022-11-10T00:18:38.868Z,31.37
2022-11-10T00:21:11.628Z,30.60
2022-11-10T00:23:40.588Z,28.63
2022-11-10T00:26:20.287Z,31.30
2022-11-10T00:28:48.911Z,30.70
2022-11-10T00:31:17.590Z,30.87
2022-11-10T00:33:46.436Z,33.20
2022-11-10T00:36:16.618Z,29.47
2022-11-10T00:38:45.266Z,32.43
2022-11-10T00:41:13.969Z,31.27
2022-11-10T00:43:42.715Z,30.20
2022-11-10T00:46:11.431Z,30.53
2022-11-10T00:48:40.262Z,29.93
2022-11-10T00:51:09.103Z,31.43
2022-11-10T00:53:39.238Z,33.50
2022-11-10T00:56:08.207Z,31.50
2022-11-10T00:58:37.095Z,31.63
2022-11-10T01:01:06.817Z,32.87
2022-11-10T01:03:35.795Z,33.00
2022-11-10T01:06:07.600Z,34.43
2022-11-10T01:08:36.324Z,32.53
2022-11-10T01:11:08.945Z,32.90
2022-11-10T01:13:38.488Z,31.73
2022-11-10T01:16:07.929Z,31.43
2022-11-10T01:18:36.804Z,30.53
2022-11-10T01:21:06.289Z,32.40
2022-11-10T01:23:35.100Z,32.10
2022-11-10T01:26:07.228Z,31.57
2022-11-10T01:28:37.192Z,32.90
2022-11-10T01:31:08.263Z,33.80
2022-11-10T01:33:37.281Z,32.90
2022-11-10T01:36:07.090Z,32.80
2022-11-10T01:38:37.530Z,32.43
2022-11-10T01:41:10.036Z,33.40
2022-11-10T01:43:39.369Z,32.30
2022-11-10T01:46:09.590Z,31.73
2022-11-10T01:48:41.618Z,33.53
2022-11-10T01:51:16.273Z,32.37
2022-11-10T01:53:49.895Z,32.10
2022-11-10T01:56:21.442Z,30.33
2022-11-10T01:59:00.123Z,31.30
2022-11-10T02:01:28.911Z,32.30
2022-11-10T02:04:00.427Z,31.13
2022-11-10T02:06:32.849Z,31.60
2022-11-10T02:09:01.598Z,33.03
2022-11-10T02:11:33.491Z,34.47
2022-11-10T02:14:02.613Z,31.37
2022-11-10T02:16:31.971Z,30.80
2022-11-10T02:19:12.631Z,30.67
2022-11-10T02:21:42.757Z,32.07
2022-11-10T02:24:11.515Z,31.57
2022-11-10T02:26:43.727Z,34.13
2022-11-10T02:29:12.734Z,31.43
2022-11-10T02:31:41.453Z,32.20
2022-11-10T02:34:10.177Z,31.33
2022-11-10T02:36:38.848Z,31.77
2022-11-10T02:39:08.974Z,32.90
2022-11-10T02:41:37.681Z,31.40
2022-11-10T02:44:07.270Z,30.60
2022-11-10T02:46:37.677Z,33.03
2022-11-10T02:49:06.397Z,31.10
2022-11-10T02:51:35.167Z,29.00
2022-11-10T02:54:03.840Z,29.60
2022-11-10T02:56:33.985Z,29.17
2022-11-10T02:59:03.503Z,32.87
2022-11-10T03:01:32.329Z,29.80
2022-11-10T03:04:00.989Z,30.43
2022-11-10T03:06:30.142Z,31.03
2022-11-10T03:08:58.928Z,29.37
2022-11-10T03:11:32.090Z,32.67
2022-11-10T03:14:02.913Z,30.70
2022-11-10T03:16:31.931Z,30.47
2022-11-10T03:19:00.700Z,29.90
2022-11-10T03:21:29.411Z,31.20
2022-11-10T03:23:58.182Z,28.80
2022-11-10T03:26:26.881Z,30.17
2022-11-10T03:28:55.546Z,30.00
2022-11-10T03:31:25.545Z,28.20
2022-11-10T03:33:54.235Z,29.47
2022-11-10T03:36:22.861Z,27.50
2022-11-10T03:38:51.536Z,28.60
2022-11-10T03:41:20.966Z,29.13
2022-11-10T03:43:50.007Z,27.33
2022-11-10T03:46:21.355Z,29.50
2022-11-10T03:48:53.653Z,27.00
2022-11-10T03:51:22.901Z,28.17
2022-11-10T03:53:51.632Z,28.73
2022-11-10T03:56:20.416Z,29.27
2022-11-10T03:58:49.166Z,27.37
2022-11-10T04:01:17.948Z,25.87
2022-11-10T04:03:51.316Z,26.97
2022-11-10T04:06:39.510Z,26.63
2022-11-10T04:09:08.758Z,25.67
2022-11-10T04:11:54.797Z,25.33
2022-11-10T04:14:40.889Z,24.23
2022-11-10T04:17:09.861Z,26.97
2022-11-10T04:19:38.578Z,26.13
2022-11-10T04:22:28.735Z,25.13
2022-11-10T04:24:57.423Z,25.83
2022-11-10T04:27:26.418Z,24.37
2022-11-10T04:29:55.143Z,24.30
2022-11-10T04:32:23.774Z,26.57
2022-11-10T04:34:52.582Z,25.47
2022-11-10T04:37:22.639Z,24.50
2022-11-10T04:39:51.349Z,23.97
2022-11-10T04:42:19.987Z,23.70
2022-11-10T04:44:48.688Z,23.67
2022-11-10T04:47:17.334Z,23.20
2022-11-10T04:49:45.957Z,23.80
2022-11-10T04:52:14.627Z,23.37
2022-11-10T04:54:44.689Z,22.23
2022-11-10T04:57:13.368Z,23.53
2022-11-10T04:59:42.010Z,21.50
2022-11-10T05:02:10.713Z,21.50
2022-11-10T05:04:39.387Z,20.33
2022-11-10T05:07:08.050Z,20.57
2022-11-10T05:09:36.754Z,20.07
2022-11-10T05:12:07.133Z,20.87
2022-11-10T05:14:35.805Z,19.83
2022-11-10T05:17:04.512Z,18.50
2022-11-10T05:19:33.230Z,19.40
2022-11-10T05:22:01.957Z,19.13
2022-11-10T05:24:30.720Z,18.37
2022-11-10T05:26:59.347Z,19.13
2022-11-10T05:29:29.420Z,17.27
2022-11-10T05:31:58.092Z,18.63
2022-11-10T05:34:26.870Z,18.33
2022-11-10T05:36:55.554Z,16.60
2022-11-10T05:39:24.248Z,17.13
2022-11-10T05:41:52.880Z,16.87
2022-11-10T05:44:21.593Z,17.23
2022-11-10T05:46:51.644Z,16.97
2022-11-10T05:49:20.351Z,15.53
2022-11-10T05:51:49.030Z,16.17
2022-11-10T05:54:17.735Z,15.60
2022-11-10T05:56:46.445Z,17.40
2022-11-10T05:59:15.091Z,15.53
2022-11-10T06:01:44.079Z,13.90
2022-11-10T06:04:14.210Z,13.40
2022-11-10T06:06:42.958Z,14.33
2022-11-10T06:09:11.676Z,13.17
2022-11-10T06:11:40.388Z,13.27
2022-11-10T06:14:09.070Z,12.87
2022-11-10T06:16:37.773Z,12.37
2022-11-10T06:19:06.459Z,12.93
2022-11-10T06:21:36.568Z,11.47
2022-11-10T06:24:05.547Z,12.20
2022-11-10T06:26:34.216Z,12.33
2022-11-10T06:29:03.076Z,12.00
2022-11-10T06:31:31.731Z,11.87
2022-11-10T06:34:00.394Z,11.27
2022-11-10T06:36:29.185Z,11.53
2022-11-10T06:38:59.470Z,11.03
2022-11-10T06:41:28.264Z,10.53
2022-11-10T06:43:57.347Z,10.30
2022-11-10T06:46:26.040Z,11.10
2022-11-10T06:48:54.764Z,10.83
2022-11-10T06:51:23.474Z,10.30
2022-11-10T06:53:52.100Z,9.60
2022-11-10T06:56:22.317Z,8.93
2022-11-10T06:58:51.049Z,8.93
2022-11-10T07:01:22.422Z,8.83
2022-11-10T07:04:13.498Z,8.00
2022-11-10T07:06:40.163Z,10.10
2022-11-10T07:09:09.182Z,8.23
2022-11-10T07:11:39.350Z,8.30
2022-11-10T07:14:08.077Z,8.30
2022-11-10T07:16:36.837Z,7.83
2022-11-10T07:19:05.633Z,8.40
2022-11-10T07:21:34.380Z,7.80
2022-11-10T07:24:03.064Z,7.97
2022-11-10T07:26:31.745Z,7.80
2022-11-10T07:29:01.980Z,10.00
2022-11-10T07:31:30.639Z,6.63
2022-11-10T07:33:59.307Z,6.93
2022-11-10T07:36:29.219Z,6.83
2022-11-10T07:38:57.938Z,6.70
2022-11-10T07:41:26.613Z,8.27
2022-11-10T07:43:55.390Z,7.10
2022-11-10T07:46:25.533Z,7.47
2022-11-10T07:48:54.929Z,7.77
2022-11-10T07:51:23.656Z,7.00
2022-11-10T07:53:52.443Z,8.40
2022-11-10T07:56:22.031Z,7.33
2022-11-10T07:58:50.686Z,8.40
2022-11-10T08:01:19.757Z,7.60
2022-11-10T08:03:50.012Z,6.60
2022-11-10T08:06:19.020Z,7.20
2022-11-10T08:08:48.335Z,6.83
2022-11-10T08:11:17.001Z,7.23
2022-11-10T08:13:45.661Z,6.67
2022-11-10T08:16:14.334Z,6.77
2022-11-10T08:18:43.059Z,6.20
2022-11-10T08:21:13.226Z,5.80
2022-11-10T08:23:42.032Z,4.93
2022-11-10T08:26:10.841Z,4.93
2022-11-10T08:28:39.664Z,4.93
2022-11-10T08:31:08.451Z,4.80
2022-11-10T08:33:37.233Z,5.13
2022-11-10T08:36:06.360Z,5.17
2022-11-10T08:38:36.562Z,4.93
2022-11-10T08:41:05.564Z,4.30
2022-11-10T08:43:34.382Z,5.93
2022-11-10T08:46:03.163Z,5.03
2022-11-10T08:48:31.945Z,4.50
2022-11-10T08:51:01.902Z,4.97
2022-11-10T08:53:30.575Z,4.60
2022-11-10T08:56:02.147Z,5.00
2022-11-10T08:58:30.871Z,4.93
2022-11-10T09:00:59.595Z,4.60
2022-11-10T09:03:28.250Z,4.70
2022-11-10T09:05:59.028Z,4.10
2022-11-10T09:08:28.075Z,4.10
2022-11-10T09:10:56.939Z,4.00
2022-11-10T09:13:30.278Z,3.60
2022-11-10T09:16:02.514Z,3.80
2022-11-10T09:18:31.510Z,3.30
2022-11-10T09:21:00.820Z,4.40
2022-11-10T09:23:29.777Z,3.70
2022-11-10T09:25:58.616Z,3.87
2022-11-10T09:28:28.703Z,3.13
2022-11-10T09:30:58.004Z,2.77
2022-11-10T09:33:26.960Z,3.17
2022-11-10T09:36:00.180Z,3.77
2022-11-10T09:38:28.902Z,3.17
2022-11-10T09:41:03.091Z,2.50
2022-11-10T09:43:41.002Z,3.70
2022-11-10T09:46:15.698Z,3.53
2022-11-10T09:48:49.401Z,3.30
2022-11-10T09:51:23.736Z,2.93
2022-11-10T09:53:57.501Z,2.87
2022-11-10T09:56:34.282Z,2.97
2022-11-10T09:59:09.437Z,2.83
2022-11-10T10:01:46.856Z,3.80
2022-11-10T10:04:30.985Z,2.97
2022-11-10T10:07:11.439Z,2.77
2022-11-10T10:09:47.614Z,3.20
2022-11-10T10:12:27.530Z,3.17
2022-11-10T10:15:11.530Z,2.87
2022-11-10T10:17:49.810Z,2.90
2022-11-10T10:20:25.887Z,2.50
2022-11-10T10:23:05.648Z,3.07
2022-11-10T10:25:34.523Z,2.33
2022-11-10T10:28:13.476Z,2.70
2022-11-10T10:30:45.446Z,3.63
2022-11-10T10:33:18.504Z,3.03
2022-11-10T10:35:49.210Z,2.70
2022-11-10T10:38:24.785Z,2.07
2022-11-10T10:40:58.898Z,2.70
2022-11-10T10:43:27.623Z,2.27
2022-11-10T10:46:08.139Z,2.80
2022-11-10T10:48:37.041Z,2.53
2022-11-10T10:51:06.052Z,2.90
2022-11-10T10:53:46.355Z,3.23
2022-11-10T10:56:21.680Z,2.70
2022-11-10T10:58:54.543Z,2.80
2022-11-10T11:01:30.742Z,2.90
2022-11-10T11:04:00.268Z,2.37
2022-11-10T11:06:30.286Z,2.30
2022-11-10T11:09:01.673Z,2.50
2022-11-10T11:11:32.970Z,3.43
2022-11-10T11:14:21.543Z,3.10
2022-11-10T11:16:54.379Z,3.03
2022-11-10T11:19:26.185Z,2.37
2022-11-10T11:22:29.907Z,2.80
2022-11-10T11:25:10.620Z,2.17
2022-11-10T11:27:50.584Z,2.93
2022-11-10T11:30:21.152Z,2.60
2022-11-10T11:33:10.974Z,2.43
2022-11-10T11:35:47.785Z,3.80
2022-11-10T11:38:22.035Z,3.03
2022-11-10T11:40:57.808Z,3.20
2022-11-10T11:43:52.148Z,2.97
2022-11-10T11:46:32.217Z,2.37
2022-11-10T11:49:23.040Z,2.23
2022-11-10T11:52:00.597Z,2.30
2022-11-10T11:54:35.074Z,2.20
2022-11-10T11:57:18.038Z,2.43
2022-11-10T12:00:01.783Z,2.63
2022-11-10T12:03:13.754Z,2.17
2022-11-10T12:05:58.718Z,2.50
2022-11-10T12:08:38.377Z,2.40
2022-11-10T12:11:13.441Z,2.70
2022-11-10T12:13:54.230Z,2.30
2022-11-10T12:16:27.424Z,2.50
2022-11-10T12:19:04.406Z,2.87
2022-11-10T12:21:44.557Z,2.53
2022-11-10T12:24:28.065Z,2.53
2022-11-10T12:27:00.337Z,2.47
2022-11-10T12:29:35.986Z,2.50
2022-11-10T12:32:11.719Z,2.63
2022-11-10T12:34:44.231Z,2.63
2022-11-10T12:37:24.854Z,3.17
2022-11-10T12:40:03.574Z,2.30
2022-11-10T12:42:34.969Z,2.60
2022-11-10T12:45:06.185Z,2.30
2022-11-10T12:47:40.721Z,2.50
2022-11-10T12:50:26.744Z,2.10
2022-11-10T12:53:02.973Z,2.07
2022-11-10T12:55:39.018Z,2.40
2022-11-10T12:58:08.938Z,2.47
2022-11-10T13:00:43.500Z,2.10
2022-11-10T13:03:25.491Z,2.50
2022-11-10T13:05:59.091Z,2.50
2022-11-10T13:08:33.492Z,2.07
2022-11-10T13:11:07.196Z,2.53
2022-11-10T13:13:48.287Z,2.10
2022-11-10T13:16:52.601Z,1.80
2022-11-10T13:19:49.734Z,1.90
2022-11-10T13:22:33.332Z,2.17
2022-11-10T13:25:39.145Z,1.73
2022-11-10T13:28:11.650Z,2.13
2022-11-10T13:30:46.436Z,2.40
2022-11-10T13:33:37.871Z,2.47
2022-11-10T13:36:09.406Z,2.07
2022-11-10T13:38:40.388Z,2.23
2022-11-10T13:41:34.718Z,2.63
2022-11-10T13:44:21.672Z,1.93
2022-11-10T13:47:36.263Z,2.27
2022-11-10T13:50:21.995Z,1.80
2022-11-10T13:53:02.463Z,2.17
2022-11-10T13:55:47.559Z,1.80
2022-11-10T13:58:25.540Z,1.70
2022-11-10T14:01:28.283Z,1.60
2022-11-10T14:04:00.954Z,1.70
2022-11-10T14:06:42.302Z,1.73
2022-11-10T14:09:25.152Z,1.67
2022-11-10T14:11:58.062Z,1.47
2022-11-10T14:14:30.419Z,2.10
2022-11-10T14:17:01.068Z,1.50
2022-11-10T14:19:39.842Z,1.70
2022-11-10T14:22:20.409Z,1.63
2022-11-10T14:24:55.733Z,1.97
2022-11-10T14:27:27.589Z,2.00
2022-11-10T14:30:25.944Z,2.47
2022-11-10T14:33:00.740Z,2.53
2022-11-10T14:35:31.952Z,2.70
2022-11-10T14:38:01.384Z,2.27
2022-11-10T14:40:31.346Z,2.60
2022-11-10T14:43:01.538Z,1.90
2022-11-10T14:45:31.005Z,1.67
2022-11-10T14:48:02.287Z,2.60
2022-11-10T14:50:34.224Z,2.03
2022-11-10T14:53:05.464Z,2.47
2022-11-10T14:55:37.668Z,2.80
2022-11-10T14:58:12.580Z,2.00
2022-11-10T15:00:43.386Z,2.60
2022-11-10T15:03:20.271Z,2.77
2022-11-10T15:05:49.783Z,2.63
2022-11-10T15:08:19.043Z,3.13
2022-11-10T15:10:50.052Z,2.67
2022-11-10T15:13:37.346Z,2.73
2022-11-10T15:16:36.811Z,2.87
2022-11-10T15:19:29.923Z,2.53
2022-11-10T15:22:07.296Z,2.63
2022-11-10T15:24:36.011Z,2.97
2022-11-10T15:27:04.721Z,3.07
2022-11-10T15:29:35.744Z,3.23
2022-11-10T15:32:07.326Z,3.47
2022-11-10T15:34:44.768Z,3.33
2022-11-10T15:37:29.114Z,3.47
2022-11-10T15:40:34.306Z,3.40
2022-11-10T15:43:16.706Z,3.67
2022-11-10T15:45:47.211Z,3.77
2022-11-10T15:48:18.243Z,3.50
2022-11-10T15:50:50.908Z,3.50
2022-11-10T15:53:26.011Z,4.57
2022-11-10T15:55:54.818Z,4.53
2022-11-10T15:58:24.963Z,4.17
2022-11-10T16:00:53.930Z,4.77
2022-11-10T16:03:24.807Z,4.37
2022-11-10T16:05:55.373Z,5.53
2022-11-10T16:08:24.812Z,4.80
2022-11-10T16:10:55.500Z,4.70
2022-11-10T16:13:28.056Z,6.00
2022-11-10T16:15:57.643Z,5.97
2022-11-10T16:18:28.836Z,6.73
2022-11-10T16:20:59.435Z,6.50
2022-11-10T16:23:28.126Z,7.00
2022-11-10T16:25:58.742Z,5.67
2022-11-10T16:28:29.068Z,5.50
2022-11-10T16:30:58.319Z,6.03
2022-11-10T16:33:28.146Z,5.23
2022-11-10T16:35:58.923Z,5.27
2022-11-10T16:38:29.950Z,6.00
2022-11-10T16:41:00.528Z,5.33
2022-11-10T16:43:30.857Z,5.60
2022-11-10T16:46:03.711Z,5.20
2022-11-10T16:48:36.228Z,5.90
2022-11-10T16:51:07.452Z,5.63
2022-11-10T16:53:38.901Z,6.87
2022-11-10T16:56:08.527Z,5.90
2022-11-10T16:58:37.457Z,7.80
2022-11-10T17:01:07.378Z,9.90
2022-11-10T17:03:40.154Z,8.40
2022-11-10T17:06:14.327Z,9.70
2022-11-10T17:08:43.910Z,8.43
2022-11-10T17:11:12.930Z,9.27
2022-11-10T17:13:44.839Z,9.80
2022-11-10T17:16:22.559Z,8.37
2022-11-10T17:18:52.223Z,8.40
2022-11-10T17:21:27.320Z,8.13
2022-11-10T17:23:58.981Z,7.80
2022-11-10T17:26:27.998Z,8.60
2022-11-10T17:28:56.802Z,8.57
2022-11-10T17:31:25.535Z,7.40
2022-11-10T17:33:55.625Z,9.33
2022-11-10T17:36:25.904Z,8.87
2022-11-10T17:38:54.724Z,8.80
2022-11-10T17:41:23.585Z,8.70
2022-11-10T17:43:52.439Z,10.03
2022-11-10T17:46:21.628Z,9.43
2022-11-10T17:48:50.854Z,8.83
2022-11-10T17:51:22.534Z,8.50
2022-11-10T17:53:53.800Z,8.80
2022-11-10T17:56:24.099Z,7.90
2022-11-10T17:58:54.290Z,8.50
2022-11-10T18:01:23.994Z,8.63
2022-11-10T18:03:53.242Z,9.30
2022-11-10T18:06:23.365Z,9.00
2022-11-10T18:08:53.693Z,10.07
2022-11-10T18:11:22.563Z,11.20
2022-11-10T18:13:51.551Z,9.93
2022-11-10T18:16:20.578Z,11.03
2022-11-10T18:18:49.665Z,11.30
2022-11-10T18:21:18.783Z,10.20
2022-11-10T18:23:48.003Z,9.90
2022-11-10T18:26:18.620Z,12.30
2022-11-10T18:28:50.404Z,11.80
2022-11-10T18:31:19.611Z,9.80
2022-11-10T18:33:51.661Z,11.40
2022-11-10T18:36:20.695Z,10.80
2022-11-10T18:38:49.477Z,10.93
2022-11-10T18:41:37.357Z,9.80
2022-11-10T18:44:06.816Z,12.60
2022-11-10T18:46:36.300Z,11.50
2022-11-10T18:49:05.647Z,11.20
2022-11-10T18:51:34.905Z,11.23
2022-11-10T18:54:04.335Z,11.57
2022-11-10T18:56:36.098Z,12.00
2022-11-10T18:59:06.272Z,10.83
2022-11-10T19:01:35.572Z,11.57
2022-11-10T19:04:04.438Z,11.83
2022-11-10T19:06:33.457Z,12.63
2022-11-10T19:09:02.572Z,11.23
2022-11-10T19:11:34.899Z,11.70
2022-11-10T19:14:04.179Z,10.50
2022-11-10T19:16:33.299Z,12.30
2022-11-10T19:19:02.106Z,10.67
2022-11-10T19:21:32.115Z,9.93
2022-11-10T19:24:01.618Z,10.63
2022-11-10T19:26:31.147Z,11.33
2022-11-10T19:29:02.396Z,10.77
2022-11-10T19:31:31.568Z,11.77
2022-11-10T19:34:00.923Z,11.47
2022-11-10T19:36:30.807Z,10.77
2022-11-10T19:38:59.653Z,12.07
2022-11-10T19:41:30.528Z,12.67
2022-11-10T19:44:03.297Z,13.80
2022-11-10T19:46:36.843Z,11.73
2022-11-10T19:49:06.814Z,13.37
2022-11-10T19:51:36.071Z,12.70
2022-11-10T19:54:06.160Z,13.20
2022-11-10T19:56:36.296Z,13.07
2022-11-10T19:59:07.420Z,13.33
2022-11-10T20:01:38.037Z,13.60
2022-11-10T20:04:09.015Z,14.23
2022-11-10T20:06:38.448Z,13.03
2022-11-10T20:09:07.740Z,14.40
2022-11-10T20:11:36.847Z,15.23
2022-11-10T20:14:07.588Z,15.57
2022-11-10T20:16:36.895Z,16.80
2022-11-10T20:19:06.129Z,16.87
2022-11-10T20:21:35.212Z,15.33
2022-11-10T20:24:04.694Z,17.53
2022-11-10T20:26:34.098Z,16.87
2022-11-10T20:29:03.629Z,15.90
2022-11-10T20:31:34.499Z,16.80
2022-11-10T20:34:04.037Z,17.03
2022-11-10T20:36:34.415Z,16.30
2022-11-10T20:39:07.407Z,17.40
2022-11-10T20:41:38.262Z,18.27
2022-11-10T20:44:07.683Z,17.40
2022-11-10T20:46:53.892Z,16.13
2022-11-10T20:49:24.183Z,17.47
2022-11-10T20:51:53.379Z,15.90
2022-11-10T20:54:22.369Z,15.50
2022-11-10T20:56:51.563Z,15.83
2022-11-10T20:59:20.658Z,14.13
2022-11-10T21:01:50.928Z,16.17
2022-11-10T21:04:19.977Z,15.30
2022-11-10T21:06:48.914Z,15.90
2022-11-10T21:09:17.870Z,15.90
2022-11-10T21:12:04.561Z,15.23
2022-11-10T21:14:33.417Z,13.97
2022-11-10T21:17:03.578Z,13.83
2022-11-10T21:19:34.814Z,14.63
2022-11-10T21:22:03.965Z,15.20
2022-11-10T21:24:33.010Z,14.50
2022-11-10T21:27:01.773Z,15.00
2022-11-10T21:29:30.476Z,14.03
2022-11-10T21:31:59.185Z,15.33
2022-11-10T21:34:29.348Z,15.20
2022-11-10T21:36:58.064Z,15.80
2022-11-10T21:39:26.744Z,15.90
2022-11-10T21:41:55.506Z,15.00
2022-11-10T21:44:25.168Z,16.27
2022-11-10T21:46:54.010Z,14.00
2022-11-10T21:49:22.822Z,16.33
2022-11-10T21:51:54.173Z,15.10
2022-11-10T21:54:22.928Z,14.70
2022-11-10T21:56:52.437Z,15.57
2022-11-10T21:59:21.195Z,15.47
2022-11-10T22:01:50.049Z,15.10
2022-11-10T22:04:18.933Z,16.10
2022-11-10T22:07:05.031Z,16.40
2022-11-10T22:09:52.523Z,16.33
2022-11-10T22:12:38.901Z,15.70
2022-11-10T22:15:32.978Z,16.07
2022-11-10T22:18:19.333Z,14.63
2022-11-10T22:20:48.674Z,14.90
2022-11-10T22:23:17.620Z,15.17
2022-11-10T22:25:47.830Z,14.00
2022-11-10T22:28:16.576Z,14.60
2022-11-10T22:30:45.367Z,13.70
2022-11-10T22:33:30.814Z,14.30
2022-11-10T22:36:00.520Z,14.73
2022-11-10T22:38:29.275Z,14.40
2022-11-10T22:41:18.086Z,14.03
2022-11-10T22:44:05.411Z,13.57
2022-11-10T22:46:36.458Z,14.43
2022-11-10T22:49:08.517Z,14.07
2022-11-10T22:51:38.318Z,14.20
2022-11-10T22:54:10.373Z,15.33
2022-11-10T22:56:41.200Z,15.40
2022-11-10T22:59:10.078Z,15.20
2022-11-10T23:01:39.666Z,15.80
2022-11-10T23:04:08.529Z,15.27
2022-11-10T23:06:37.393Z,15.77
2022-11-10T23:09:07.449Z,16.30
2022-11-10T23:11:36.224Z,14.87
2022-11-10T23:14:06.408Z,14.93
2022-11-10T23:16:36.699Z,15.70
2022-11-10T23:19:05.561Z,16.40
2022-11-10T23:21:34.348Z,15.13
2022-11-10T23:24:03.161Z,17.03
2022-11-10T23:26:34.135Z,15.50
2022-11-10T23:29:02.956Z,14.93
2022-11-10T23:31:33.122Z,14.50
2022-11-10T23:34:01.879Z,16.37
2022-11-10T23:36:30.538Z,15.37
2022-11-10T23:38:59.476Z,15.53
2022-11-10T23:41:28.249Z,15.07
2022-11-10T23:43:57.057Z,16.47
2022-11-10T23:46:25.817Z,15.10
2022-11-10T23:48:55.962Z,15.77
2022-11-10T23:51:25.985Z,16.33
2022-11-10T23:53:54.760Z,15.77
2022-11-10T23:56:23.518Z,17.13
2022-11-10T23:58:52.288Z,17.60
